Time;durP1;ratioP1;P1;durP2;ratioP2;P2;SDS_P1;SDS_P2;PMS_P1;PMS_P2;Temp;Humidity;BMP_temperature;BMP_pressure;BME280_temperature;BME280_humidity;BME280_pressure;Samples;Min_cycle;Max_cycle;Signal;HPM_P1;HPM_P2
2023/12/31 00:00:23;;;;;;;;;;;2.40;99.90;;;;;;5037805;28;19908;-75
2023/12/31 00:02:49;;;;;;;;;;;2.40;99.90;;;;;;5038495;28;19920;-74
2023/12/31 00:05:14;;;;;;;;;;;2.40;99.90;;;;;;5037046;28;20357;-74
2023/12/31 00:07:40;;;;;;;;;;;2.50;99.90;;;;;;5035239;28;19905;-75
2023/12/31 00:10:06;;;;;;;;;;;2.40;99.90;;;;;;5053022;28;19912;-74
2023/12/31 00:12:31;;;;;;;;;;;2.40;99.90;;;;;;5052638;28;20362;-74
2023/12/31 00:14:57;;;;;;;;;;;2.50;99.90;;;;;;5035276;28;19912;-75
2023/12/31 00:17:22;;;;;;;;;;;2.40;99.90;;;;;;5035437;28;19905;-74
2023/12/31 00:19:48;;;;;;;;;;;2.40;99.90;;;;;;5053382;28;20050;-75
2023/12/31 00:22:13;;;;;;;;;;;2.30;99.90;;;;;;5035845;28;19905;-75
2023/12/31 00:24:39;;;;;;;;;;;2.40;99.90;;;;;;5035534;28;19909;-74
2023/12/31 00:27:04;;;;;;;;;;;2.30;99.90;;;;;;5035262;28;19938;-75
2023/12/31 00:29:30;;;;;;;;;;;2.30;99.90;;;;;;5054381;28;20430;-77
2023/12/31 00:31:55;;;;;;;;;;;2.30;99.90;;;;;;5036017;28;20059;-77
2023/12/31 00:34:21;;;;;;;;;;;2.30;99.90;;;;;;5035769;28;19921;-75
2023/12/31 00:36:46;;;;;;;;;;;2.40;99.90;;;;;;5035277;28;20391;-74
2023/12/31 00:39:12;;;;;;;;;;;2.30;99.90;;;;;;5035937;28;19912;-75
2023/12/31 00:41:37;;;;;;;;;;;2.50;99.90;;;;;;5054415;28;20360;-75
2023/12/31 00:44:03;;;;;;;;;;;2.50;99.90;;;;;;5036440;28;20380;-75
2023/12/31 00:46:28;;;;;;;;;;;2.40;99.90;;;;;;5054999;28;20010;-75
2023/12/31 00:48:54;;;;;;;;;;;2.40;99.90;;;;;;5054898;28;20038;-75
2023/12/31 00:51:19;;;;;;;;;;;2.30;99.90;;;;;;5036776;28;19909;-75
2023/12/31 00:53:45;;;;;;;;;;;2.30;99.90;;;;;;5036498;28;19904;-75
2023/12/31 00:56:10;;;;;;;;;;;2.40;99.90;;;;;;5054751;28;20335;-75
2023/12/31 00:58:36;;;;;;;;;;;2.40;99.90;;;;;;5054515;28;19920;-75
2023/12/31 01:01:02;;;;;;;;;;;2.50;99.90;;;;;;5036584;28;19904;-75
2023/12/31 01:03:27;;;;;;;;;;;2.50;99.90;;;;;;5036050;28;19936;-76
2023/12/31 01:05:53;;;;;;;;;;;2.50;99.90;;;;;;5054782;28;19904;-75
2023/12/31 01:08:18;;;;;;;;;;;2.30;99.90;;;;;;5055383;28;19905;-74
2023/12/31 01:10:44;;;;;;;;;;;2.40;99.90;;;;;;5054593;28;20333;-75
2023/12/31 01:13:09;;;;;;;;;;;2.30;99.90;;;;;;5037348;28;19904;-75
2023/12/31 01:15:35;;;;;;;;;;;2.30;99.90;;;;;;5037956;28;19927;-76
2023/12/31 01:18:00;;;;;;;;;;;2.30;99.90;;;;;;5054395;28;20289;-75
2023/12/31 01:20:26;;;;;;;;;;;2.30;99.90;;;;;;5035342;28;19909;-75
2023/12/31 01:22:51;;;;;;;;;;;2.30;99.90;;;;;;5053128;28;19905;-75
2023/12/31 01:25:17;;;;;;;;;;;2.30;99.90;;;;;;5035033;28;19909;-75
2023/12/31 01:27:42;;;;;;;;;;;2.30;99.90;;;;;;5053465;28;20312;-75
2023/12/31 01:30:09;;;;;;;;;;;2.30;99.90;;;;;;5034941;28;20331;-75
2023/12/31 01:32:35;;;;;;;;;;;2.30;99.90;;;;;;5053136;28;19912;-75
2023/12/31 01:35:03;;;;;;;;;;;2.30;99.90;;;;;;5053119;28;19924;-75
2023/12/31 01:37:28;;;;;;;;;;;2.30;99.90;;;;;;5038368;28;19905;-75
2023/12/31 01:39:54;;;;;;;;;;;2.30;99.90;;;;;;5038567;28;19958;-74
2023/12/31 01:42:19;;;;;;;;;;;2.20;99.90;;;;;;5038376;28;19964;-75
2023/12/31 01:44:45;;;;;;;;;;;2.20;99.90;;;;;;5056901;28;19905;-74
2023/12/31 01:47:11;;;;;;;;;;;2.30;99.90;;;;;;5038475;28;19904;-75
2023/12/31 01:49:37;;;;;;;;;;;2.30;99.90;;;;;;5038776;28;19951;-75
2023/12/31 01:52:02;;;;;;;;;;;2.20;99.90;;;;;;5037849;28;19955;-75
2023/12/31 01:54:28;;;;;;;;;;;2.20;99.90;;;;;;5055558;28;19905;-74
2023/12/31 01:56:55;;;;;;;;;;;2.20;99.90;;;;;;5038560;28;20516;-75
2023/12/31 01:59:21;;;;;;;;;;;2.20;99.90;;;;;;5057161;28;20004;-75
2023/12/31 02:01:48;;;;;;;;;;;2.20;99.90;;;;;;5056355;28;19944;-75
2023/12/31 02:04:14;;;;;;;;;;;2.20;99.90;;;;;;5056729;28;19905;-75
2023/12/31 02:06:40;;;;;;;;;;;2.30;99.90;;;;;;5056724;28;19927;-74
2023/12/31 02:09:06;;;;;;;;;;;2.30;99.90;;;;;;5057423;28;19916;-75
2023/12/31 02:11:32;;;;;;;;;;;2.20;99.90;;;;;;5039922;28;19905;-75
2023/12/31 02:13:58;;;;;;;;;;;2.30;99.90;;;;;;5056621;28;20301;-77
2023/12/31 02:16:25;;;;;;;;;;;2.20;99.90;;;;;;5036928;28;20403;-74
2023/12/31 02:18:50;;;;;;;;;;;2.30;99.90;;;;;;5036576;28;19913;-75
2023/12/31 02:21:16;;;;;;;;;;;2.30;99.90;;;;;;5036628;28;20011;-75
2023/12/31 02:23:41;;;;;;;;;;;2.30;99.90;;;;;;5036649;28;19915;-74
2023/12/31 02:26:08;;;;;;;;;;;2.30;99.90;;;;;;5054630;28;19973;-75
2023/12/31 02:28:33;;;;;;;;;;;2.30;99.90;;;;;;5049494;28;19913;-74
2023/12/31 02:30:59;;;;;;;;;;;2.50;99.90;;;;;;5035644;28;19949;-74
2023/12/31 02:33:25;;;;;;;;;;;2.40;99.90;;;;;;5054168;28;19921;-75
2023/12/31 02:35:50;;;;;;;;;;;2.40;99.90;;;;;;5054214;28;19908;-75
2023/12/31 02:38:16;;;;;;;;;;;2.40;99.90;;;;;;5054339;28;19917;-75
2023/12/31 02:40:41;;;;;;;;;;;2.50;99.90;;;;;;5054386;28;19905;-75
2023/12/31 02:43:07;;;;;;;;;;;2.40;99.90;;;;;;5036466;28;19911;-74
2023/12/31 02:45:32;;;;;;;;;;;2.40;99.90;;;;;;5036495;28;20368;-75
2023/12/31 02:47:58;;;;;;;;;;;2.40;99.90;;;;;;5035783;28;19931;-74
2023/12/31 02:50:23;;;;;;;;;;;2.30;99.90;;;;;;5054880;28;19905;-76
2023/12/31 02:52:50;;;;;;;;;;;2.30;99.90;;;;;;5035653;28;20361;-74
2023/12/31 02:55:15;;;;;;;;;;;2.30;99.90;;;;;;5053016;28;20416;-74
2023/12/31 02:57:41;;;;;;;;;;;2.30;99.90;;;;;;5054589;28;20003;-75
2023/12/31 03:00:06;;;;;;;;;;;2.30;99.90;;;;;;5054383;28;19917;-74
2023/12/31 03:02:32;;;;;;;;;;;2.30;99.90;;;;;;5036812;28;20371;-75
2023/12/31 03:04:57;;;;;;;;;;;2.40;99.90;;;;;;5054398;28;19909;-75
2023/12/31 03:07:23;;;;;;;;;;;2.40;99.90;;;;;;5037199;28;20388;-75
2023/12/31 03:09:48;;;;;;;;;;;2.40;99.90;;;;;;5055294;28;19915;-75
2023/12/31 03:12:14;;;;;;;;;;;2.30;99.90;;;;;;5036915;28;19904;-75
2023/12/31 03:14:39;;;;;;;;;;;2.20;99.90;;;;;;5055033;28;20273;-75
2023/12/31 03:17:05;;;;;;;;;;;2.30;99.90;;;;;;5036686;28;19908;-75
2023/12/31 03:19:35;;;;;;;;;;;2.30;99.90;;;;;;5036811;28;19923;-75
2023/12/31 03:22:00;;;;;;;;;;;2.30;99.90;;;;;;5036591;28;19905;-75
2023/12/31 03:24:27;;;;;;;;;;;2.20;99.90;;;;;;5055036;28;20372;-75
2023/12/31 03:26:52;;;;;;;;;;;2.40;99.90;;;;;;5037134;28;19909;-75
2023/12/31 03:29:18;;;;;;;;;;;2.30;99.90;;;;;;5055334;28;19996;-75
2023/12/31 03:31:43;;;;;;;;;;;2.30;99.90;;;;;;5055631;28;19943;-75
2023/12/31 03:34:09;;;;;;;;;;;2.30;99.90;;;;;;5037402;28;19917;-75
2023/12/31 03:36:35;;;;;;;;;;;2.40;99.90;;;;;;5054931;28;19909;-74
2023/12/31 03:39:00;;;;;;;;;;;2.30;99.90;;;;;;5037752;28;19913;-74
2023/12/31 03:41:26;;;;;;;;;;;2.30;99.90;;;;;;5055890;28;19927;-75
2023/12/31 03:43:51;;;;;;;;;;;2.30;99.90;;;;;;5037570;28;19983;-75
2023/12/31 03:46:17;;;;;;;;;;;2.30;99.90;;;;;;5037435;28;19915;-75
2023/12/31 03:48:42;;;;;;;;;;;2.20;99.90;;;;;;5037659;28;19905;-75
2023/12/31 03:51:09;;;;;;;;;;;2.20;99.90;;;;;;5054925;28;19991;-75
2023/12/31 03:53:34;;;;;;;;;;;2.30;99.90;;;;;;5037336;28;19905;-75
2023/12/31 03:56:00;;;;;;;;;;;2.20;99.90;;;;;;5055726;28;19950;-75
2023/12/31 03:58:25;;;;;;;;;;;2.30;99.90;;;;;;5054989;28;19939;-75
2023/12/31 04:00:51;;;;;;;;;;;2.40;99.90;;;;;;5056088;28;19905;-75
2023/12/31 04:03:16;;;;;;;;;;;2.40;99.90;;;;;;5038084;28;19955;-75
2023/12/31 04:05:42;;;;;;;;;;;2.40;99.90;;;;;;5055826;28;19908;-77
2023/12/31 04:08:07;;;;;;;;;;;2.40;99.90;;;;;;5056243;28;19951;-75
2023/12/31 04:10:33;;;;;;;;;;;2.40;99.90;;;;;;5056072;28;19947;-75
2023/12/31 04:12:58;;;;;;;;;;;2.40;99.90;;;;;;5038904;28;19982;-75
2023/12/31 04:15:24;;;;;;;;;;;2.30;99.90;;;;;;5039535;28;19911;-75
2023/12/31 04:17:50;;;;;;;;;;;2.40;99.90;;;;;;5039803;28;19912;-75
2023/12/31 04:20:16;;;;;;;;;;;2.30;99.90;;;;;;5057207;28;19904;-75
2023/12/31 04:22:42;;;;;;;;;;;2.40;99.90;;;;;;5040832;28;19916;-76
2023/12/31 04:25:07;;;;;;;;;;;2.40;99.90;;;;;;5058143;28;19911;-75
2023/12/31 04:27:35;;;;;;;;;;;2.30;99.90;;;;;;5037569;28;20403;-76
2023/12/31 04:30:01;;;;;;;;;;;2.50;99.90;;;;;;5056024;28;19905;-76
2023/12/31 04:32:26;;;;;;;;;;;2.40;99.90;;;;;;5053130;28;20285;-74
2023/12/31 04:34:52;;;;;;;;;;;2.50;99.90;;;;;;5052299;28;20011;-74
2023/12/31 04:37:19;;;;;;;;;;;2.60;99.90;;;;;;5052237;28;20261;-75
2023/12/31 04:39:44;;;;;;;;;;;2.70;99.90;;;;;;5034371;28;19913;-75
2023/12/31 04:42:10;;;;;;;;;;;2.70;99.90;;;;;;5051923;28;20050;-75
2023/12/31 04:44:35;;;;;;;;;;;2.70;99.90;;;;;;5034660;28;20047;-76
2023/12/31 04:47:01;;;;;;;;;;;2.60;99.90;;;;;;5052498;28;20007;-75
2023/12/31 04:49:26;;;;;;;;;;;2.60;99.90;;;;;;5034428;28;19946;-75
2023/12/31 04:51:52;;;;;;;;;;;2.70;99.90;;;;;;5034185;28;19905;-75
2023/12/31 04:54:17;;;;;;;;;;;2.90;99.90;;;;;;5034265;28;19909;-74
2023/12/31 04:56:43;;;;;;;;;;;3.10;99.90;;;;;;5052234;28;19911;-75
2023/12/31 04:59:08;;;;;;;;;;;3.10;99.90;;;;;;5052316;28;20414;-75
2023/12/31 05:01:34;;;;;;;;;;;3.20;99.90;;;;;;5034076;28;20368;-75
2023/12/31 05:04:01;;;;;;;;;;;3.20;99.90;;;;;;5033692;28;19909;-75
2023/12/31 05:06:26;;;;;;;;;;;3.20;99.90;;;;;;5034148;28;19951;-75
2023/12/31 05:08:52;;;;;;;;;;;3.20;99.90;;;;;;5052203;28;20470;-75
2023/12/31 05:11:18;;;;;;;;;;;3.10;99.90;;;;;;5035771;28;19905;-75
2023/12/31 05:13:44;;;;;;;;;;;3.10;99.90;;;;;;5056430;28;19966;-75
2023/12/31 05:16:16;;;;;;;;;;;3.00;99.90;;;;;;5039137;28;19986;-75
2023/12/31 05:18:50;;;;;;;;;;;3.00;99.90;;;;;;5056799;28;20054;-75
2023/12/31 05:21:16;;;;;;;;;;;3.10;99.90;;;;;;5039144;28;19955;-75
2023/12/31 05:23:41;;;;;;;;;;;3.30;99.90;;;;;;5056834;28;19905;-75
2023/12/31 05:26:07;;;;;;;;;;;3.40;99.90;;;;;;5057182;28;19920;-75
2023/12/31 05:28:32;;;;;;;;;;;3.50;99.90;;;;;;5039016;28;20376;-75
2023/12/31 05:30:58;;;;;;;;;;;3.70;99.90;;;;;;5039199;28;19909;-75
2023/12/31 05:33:23;;;;;;;;;;;3.70;99.90;;;;;;5039046;28;20308;-74
2023/12/31 05:35:49;;;;;;;;;;;3.80;99.90;;;;;;5039457;28;20276;-75
2023/12/31 05:38:16;;;;;;;;;;;3.80;99.90;;;;;;5039087;28;19958;-74
2023/12/31 05:40:41;;;;;;;;;;;4.00;99.90;;;;;;5038841;28;19958;-75
2023/12/31 05:43:07;;;;;;;;;;;4.30;99.90;;;;;;5056714;28;20356;-74
2023/12/31 05:45:32;;;;;;;;;;;4.30;99.90;;;;;;5039454;28;20320;-75
2023/12/31 05:47:58;;;;;;;;;;;4.40;99.90;;;;;;5056939;28;20292;-74
2023/12/31 05:50:24;;;;;;;;;;;4.50;99.90;;;;;;5038426;28;19928;-76
2023/12/31 05:52:49;;;;;;;;;;;4.60;99.90;;;;;;5039201;28;20380;-75
2023/12/31 05:55:15;;;;;;;;;;;4.50;99.90;;;;;;5039561;28;19940;-75
2023/12/31 05:57:43;;;;;;;;;;;4.60;99.90;;;;;;5039737;28;19908;-75
2023/12/31 06:00:09;;;;;;;;;;;4.50;99.90;;;;;;5039324;28;19908;-75
2023/12/31 06:02:35;;;;;;;;;;;4.50;99.90;;;;;;5056583;28;20281;-74
2023/12/31 06:05:01;;;;;;;;;;;4.70;99.90;;;;;;5038834;28;19911;-75
2023/12/31 06:07:27;;;;;;;;;;;4.80;99.90;;;;;;5038682;28;19909;-75
2023/12/31 06:09:52;;;;;;;;;;;4.90;99.90;;;;;;5038678;28;19915;-74
2023/12/31 06:12:18;;;;;;;;;;;5.00;99.90;;;;;;5056841;28;19995;-75
2023/12/31 06:14:43;;;;;;;;;;;5.00;99.90;;;;;;5038636;28;20241;-75
2023/12/31 06:17:09;;;;;;;;;;;5.10;99.90;;;;;;5038685;28;20373;-75
2023/12/31 06:19:34;;;;;;;;;;;5.00;99.90;;;;;;5056062;28;19916;-75
2023/12/31 06:22:00;;;;;;;;;;;5.20;99.90;;;;;;5056513;28;19904;-75
2023/12/31 06:24:25;;;;;;;;;;;5.20;99.90;;;;;;5039681;28;19943;-75
2023/12/31 06:26:52;;;;;;;;;;;5.10;99.90;;;;;;5059161;28;19904;-75
2023/12/31 06:29:17;;;;;;;;;;;5.00;99.90;;;;;;5040232;28;19913;-76
2023/12/31 06:31:43;;;;;;;;;;;5.10;99.90;;;;;;5058829;28;20402;-78
2023/12/31 06:34:08;;;;;;;;;;;5.10;99.90;;;;;;5038339;28;19921;-77
2023/12/31 06:36:34;;;;;;;;;;;5.00;99.90;;;;;;5037816;28;19904;-77
2023/12/31 06:39:00;;;;;;;;;;;4.90;99.90;;;;;;5037490;28;19999;-78
2023/12/31 06:41:26;;;;;;;;;;;4.70;99.90;;;;;;5036865;28;20281;-77
2023/12/31 06:43:51;;;;;;;;;;;4.70;99.90;;;;;;5036356;28;19904;-77
2023/12/31 06:46:17;;;;;;;;;;;4.60;99.90;;;;;;5054666;28;20464;-78
2023/12/31 06:48:42;;;;;;;;;;;4.30;99.90;;;;;;5036668;28;19905;-77
2023/12/31 06:51:08;;;;;;;;;;;4.20;99.90;;;;;;5036913;28;19911;-75
2023/12/31 06:53:34;;;;;;;;;;;4.10;99.90;;;;;;5037493;28;19905;-75
2023/12/31 06:56:03;;;;;;;;;;;3.90;99.90;;;;;;5055906;28;20406;-75
2023/12/31 06:58:28;;;;;;;;;;;4.00;99.90;;;;;;5055000;28;20365;-75
2023/12/31 07:00:54;;;;;;;;;;;4.30;99.90;;;;;;5036598;28;19909;-75
2023/12/31 07:03:19;;;;;;;;;;;4.60;99.90;;;;;;5036727;28;19943;-75
2023/12/31 07:05:47;;;;;;;;;;;4.70;99.90;;;;;;5036823;28;20293;-75
2023/12/31 07:08:13;;;;;;;;;;;4.90;99.90;;;;;;5036452;28;19908;-74
2023/12/31 07:10:38;;;;;;;;;;;5.10;99.90;;;;;;5053572;28;19911;-75
2023/12/31 07:13:04;;;;;;;;;;;5.20;99.90;;;;;;5053850;28;19904;-75
2023/12/31 07:15:30;;;;;;;;;;;5.10;99.90;;;;;;5036021;28;19909;-75
2023/12/31 07:17:56;;;;;;;;;;;5.20;99.90;;;;;;5036820;28;19947;-74
2023/12/31 07:20:22;;;;;;;;;;;5.10;99.90;;;;;;5037484;28;20013;-77
2023/12/31 07:22:47;;;;;;;;;;;4.90;99.90;;;;;;5054897;28;19905;-78
2023/12/31 07:25:13;;;;;;;;;;;4.90;99.90;;;;;;5054579;28;19905;-76
2023/12/31 07:27:39;;;;;;;;;;;4.70;99.90;;;;;;5037519;28;19911;-77
2023/12/31 07:30:05;;;;;;;;;;;4.60;99.90;;;;;;5038702;28;19938;-77
2023/12/31 07:32:31;;;;;;;;;;;4.50;99.90;;;;;;5038763;28;19916;-76
2023/12/31 07:34:56;;;;;;;;;;;4.30;99.90;;;;;;5037063;28;19921;-77
2023/12/31 07:37:22;;;;;;;;;;;4.30;99.90;;;;;;5056739;28;19905;-77
2023/12/31 07:39:47;;;;;;;;;;;4.20;99.90;;;;;;5057241;28;19923;-77
2023/12/31 07:42:14;;;;;;;;;;;4.30;99.90;;;;;;5057089;28;19915;-78
2023/12/31 07:44:39;;;;;;;;;;;4.30;99.90;;;;;;5038475;28;19909;-77
2023/12/31 07:47:05;;;;;;;;;;;4.00;99.90;;;;;;5056404;28;19957;-77
2023/12/31 07:49:30;;;;;;;;;;;4.00;99.90;;;;;;5038010;28;19915;-77
2023/12/31 07:51:56;;;;;;;;;;;4.10;99.90;;;;;;5036503;28;19954;-77
2023/12/31 07:54:23;;;;;;;;;;;4.20;99.90;;;;;;5054943;28;20708;-78
2023/12/31 07:56:49;;;;;;;;;;;4.10;99.90;;;;;;5055631;28;19911;-77
2023/12/31 07:59:14;;;;;;;;;;;4.00;99.90;;;;;;5055822;28;20015;-78
2023/12/31 08:01:40;;;;;;;;;;;4.00;99.90;;;;;;5057103;28;19915;-77
2023/12/31 08:04:05;;;;;;;;;;;4.10;99.90;;;;;;5037898;28;20309;-77
2023/12/31 08:06:30;;;;;;;;;;;4.20;99.90;;;;;;5037553;28;19934;-77
2023/12/31 08:08:56;;;;;;;;;;;4.20;99.90;;;;;;5037890;28;19908;-78
2023/12/31 08:11:21;;;;;;;;;;;4.30;99.90;;;;;;5038279;28;19905;-77
2023/12/31 08:13:50;;;;;;;;;;;4.30;99.90;;;;;;5056160;28;19905;-78
2023/12/31 08:16:16;;;;;;;;;;;4.40;99.90;;;;;;5037796;28;19905;-77
2023/12/31 08:18:41;;;;;;;;;;;4.70;99.90;;;;;;5037410;28;20357;-79
2023/12/31 08:21:09;;;;;;;;;;;4.80;99.90;;;;;;5054634;28;19956;-77
2023/12/31 08:23:35;;;;;;;;;;;5.10;99.90;;;;;;5054373;28;19908;-77
2023/12/31 08:26:01;;;;;;;;;;;5.10;99.90;;;;;;5054729;28;19958;-76
2023/12/31 08:28:26;;;;;;;;;;;5.10;99.90;;;;;;5056011;28;19908;-78
2023/12/31 08:30:52;;;;;;;;;;;5.10;99.90;;;;;;5055825;28;19905;-77
2023/12/31 08:33:18;;;;;;;;;;;5.00;99.90;;;;;;5055309;28;19916;-78
2023/12/31 08:35:43;;;;;;;;;;;5.10;99.90;;;;;;5055788;28;19915;-79
2023/12/31 08:38:09;;;;;;;;;;;5.20;99.90;;;;;;5038209;28;19916;-78
2023/12/31 08:40:35;;;;;;;;;;;5.40;99.90;;;;;;5057107;28;19909;-78
2023/12/31 08:43:01;;;;;;;;;;;5.60;99.90;;;;;;5053286;28;19908;-77
2023/12/31 08:45:27;;;;;;;;;;;5.70;99.90;;;;;;5034911;28;20133;-78
2023/12/31 08:47:52;;;;;;;;;;;6.00;99.90;;;;;;5039529;28;20270;-77
2023/12/31 08:50:18;;;;;;;;;;;6.40;99.90;;;;;;5039372;28;19911;-78
2023/12/31 08:52:45;;;;;;;;;;;6.60;99.90;;;;;;5038719;28;19940;-77
2023/12/31 08:55:10;;;;;;;;;;;6.80;99.90;;;;;;5056436;28;19904;-77
2023/12/31 08:57:36;;;;;;;;;;;6.90;99.90;;;;;;5038755;28;19951;-77
2023/12/31 09:00:03;;;;;;;;;;;6.90;99.90;;;;;;5038529;28;20015;-77
2023/12/31 09:02:28;;;;;;;;;;;6.90;99.90;;;;;;5038750;28;19905;-77
2023/12/31 09:04:54;;;;;;;;;;;6.90;99.90;;;;;;5056663;28;19916;-77
2023/12/31 09:07:19;;;;;;;;;;;6.90;99.90;;;;;;5038578;28;19905;-77
2023/12/31 09:09:45;;;;;;;;;;;7.00;99.90;;;;;;5039175;28;20317;-78
2023/12/31 09:12:10;;;;;;;;;;;7.20;99.90;;;;;;5057105;28;20005;-77
2023/12/31 09:14:36;;;;;;;;;;;7.00;99.90;;;;;;5039149;28;19916;-76
2023/12/31 09:17:01;;;;;;;;;;;7.10;99.90;;;;;;5038630;28;19930;-78
2023/12/31 09:19:27;;;;;;;;;;;7.00;99.90;;;;;;5038735;28;20292;-77
2023/12/31 09:21:52;;;;;;;;;;;7.10;99.90;;;;;;5057850;28;19905;-78
2023/12/31 09:24:18;;;;;;;;;;;7.10;99.90;;;;;;5056717;28;19908;-77
2023/12/31 09:26:43;;;;;;;;;;;7.10;99.90;;;;;;5056435;28;19944;-78
2023/12/31 09:29:09;;;;;;;;;;;7.00;99.90;;;;;;5038158;28;19915;-77
2023/12/31 09:31:37;;;;;;;;;;;7.00;99.90;;;;;;5038653;28;19911;-76
2023/12/31 09:34:03;;;;;;;;;;;6.80;99.90;;;;;;5038025;28;19916;-78
2023/12/31 09:36:28;;;;;;;;;;;6.60;99.90;;;;;;5056740;28;19936;-77
2023/12/31 09:38:54;;;;;;;;;;;6.60;99.90;;;;;;5038523;28;19916;-78
2023/12/31 09:41:23;;;;;;;;;;;6.50;99.90;;;;;;5038708;28;20303;-78
2023/12/31 09:43:51;;;;;;;;;;;6.50;99.90;;;;;;5038077;28;19909;-77
2023/12/31 09:46:18;;;;;;;;;;;6.50;99.90;;;;;;5038376;28;20297;-78
2023/12/31 09:48:44;;;;;;;;;;;6.50;99.90;;;;;;5039419;28;19912;-77
2023/12/31 09:51:09;;;;;;;;;;;6.40;99.90;;;;;;5056437;28;20320;-77
2023/12/31 09:53:36;;;;;;;;;;;6.10;99.90;;;;;;5056690;28;19909;-76
2023/12/31 09:56:04;;;;;;;;;;;5.90;99.90;;;;;;5056661;28;19919;-75
2023/12/31 09:58:29;;;;;;;;;;;6.00;99.90;;;;;;5037629;28;19921;-75
2023/12/31 10:00:55;;;;;;;;;;;6.00;99.90;;;;;;5055599;28;20023;-75
2023/12/31 10:03:21;;;;;;;;;;;6.00;99.90;;;;;;5037230;28;19904;-76
2023/12/31 10:05:49;;;;;;;;;;;6.00;99.90;;;;;;5037169;28;19931;-75
2023/12/31 10:08:15;;;;;;;;;;;5.80;99.90;;;;;;5055528;28;19913;-75
2023/12/31 10:10:40;;;;;;;;;;;5.80;99.90;;;;;;5055189;28;19909;-75
2023/12/31 10:13:09;;;;;;;;;;;5.80;99.90;;;;;;5055192;28;20357;-75
2023/12/31 10:15:35;;;;;;;;;;;5.80;99.90;;;;;;5038140;28;20607;-75
2023/12/31 10:18:03;;;;;;;;;;;5.80;99.90;;;;;;5038704;28;19908;-75
2023/12/31 10:20:29;;;;;;;;;;;5.80;99.90;;;;;;5038845;28;19909;-75
2023/12/31 10:22:54;;;;;;;;;;;5.80;99.90;;;;;;5038481;28;20270;-75
2023/12/31 10:25:24;;;;;;;;;;;5.60;99.90;;;;;;5038506;28;19904;-75
2023/12/31 10:27:49;;;;;;;;;;;5.80;99.90;;;;;;5057163;28;20293;-75
2023/12/31 10:30:15;;;;;;;;;;;5.70;99.90;;;;;;5056639;28;19904;-74
2023/12/31 10:32:41;;;;;;;;;;;5.70;99.90;;;;;;5056522;28;19915;-75
2023/12/31 10:35:07;;;;;;;;;;;5.60;99.90;;;;;;5038532;28;19909;-75
2023/12/31 10:37:34;;;;;;;;;;;5.60;99.90;;;;;;5056798;28;19911;-75
2023/12/31 10:40:19;;;;;;;;;;;5.60;99.90;;;;;;5056558;28;19943;-75
2023/12/31 10:42:49;;;;;;;;;;;5.60;99.90;;;;;;5057277;28;19909;-75
2023/12/31 10:45:16;;;;;;;;;;;5.60;99.90;;;;;;5057276;28;19909;-74
2023/12/31 10:47:43;;;;;;;;;;;5.50;99.90;;;;;;5038563;28;19911;-76
2023/12/31 10:50:12;;;;;;;;;;;5.50;99.90;;;;;;5036218;28;20273;-75
2023/12/31 10:52:39;;;;;;;;;;;5.50;99.90;;;;;;5053606;28;20559;-74
2023/12/31 10:55:05;;;;;;;;;;;5.40;99.90;;;;;;5035746;28;20316;-75
2023/12/31 10:57:31;;;;;;;;;;;5.40;99.90;;;;;;5035422;28;19948;-76
2023/12/31 10:59:56;;;;;;;;;;;5.40;99.90;;;;;;5035401;28;20424;-75
2023/12/31 11:02:22;;;;;;;;;;;5.40;99.90;;;;;;5054409;28;19911;-75
2023/12/31 11:04:48;;;;;;;;;;;5.40;99.90;;;;;;5037368;28;19916;-76
2023/12/31 11:07:14;;;;;;;;;;;5.40;99.90;;;;;;5037909;28;19905;-75
2023/12/31 11:09:40;;;;;;;;;;;5.40;99.90;;;;;;5036986;28;19905;-75
2023/12/31 11:12:07;;;;;;;;;;;5.50;99.90;;;;;;5035933;28;20293;-75
2023/12/31 11:14:33;;;;;;;;;;;5.30;99.90;;;;;;5035708;28;19959;-75
2023/12/31 11:17:21;;;;;;;;;;;5.40;99.90;;;;;;5053937;28;19905;-74
2023/12/31 11:20:05;;;;;;;;;;;5.40;99.90;;;;;;5053785;28;19959;-75
2023/12/31 11:22:42;;;;;;;;;;;5.40;99.90;;;;;;5053729;28;19948;-75
2023/12/31 11:25:08;;;;;;;;;;;5.40;99.90;;;;;;5053989;28;19958;-75
2023/12/31 11:27:34;;;;;;;;;;;5.30;99.90;;;;;;5054057;28;19940;-75
2023/12/31 11:30:00;;;;;;;;;;;5.40;99.90;;;;;;5036235;28;19975;-75
2023/12/31 11:32:27;;;;;;;;;;;5.30;99.90;;;;;;5053776;28;19908;-75
2023/12/31 11:34:52;;;;;;;;;;;5.60;99.90;;;;;;5035633;28;19928;-75
2023/12/31 11:37:18;;;;;;;;;;;5.70;99.90;;;;;;5053648;28;19909;-75
2023/12/31 11:39:47;;;;;;;;;;;5.70;99.90;;;;;;5035894;28;19912;-76
2023/12/31 11:42:13;;;;;;;;;;;5.50;99.90;;;;;;5036187;28;19955;-75
2023/12/31 11:44:38;;;;;;;;;;;5.80;99.90;;;;;;5036186;28;19947;-75
2023/12/31 11:47:29;;;;;;;;;;;5.70;99.90;;;;;;5054007;28;19905;-75
2023/12/31 11:49:57;;;;;;;;;;;5.70;99.90;;;;;;5035841;28;19909;-74
2023/12/31 11:52:52;;;;;;;;;;;5.70;99.90;;;;;;5035904;28;20419;-75
2023/12/31 11:55:18;;;;;;;;;;;5.60;99.90;;;;;;5041314;28;19952;-74
2023/12/31 11:57:44;;;;;;;;;;;5.50;99.90;;;;;;5036259;28;19959;-74
2023/12/31 12:00:11;;;;;;;;;;;5.70;99.90;;;;;;5054166;28;19926;-75
2023/12/31 12:02:39;;;;;;;;;;;5.60;99.90;;;;;;5035642;28;19936;-75
2023/12/31 12:05:05;;;;;;;;;;;5.60;99.90;;;;;;5054991;28;19911;-75
2023/12/31 12:07:31;;;;;;;;;;;5.60;99.90;;;;;;5037048;28;19987;-78
2023/12/31 12:09:56;;;;;;;;;;;5.40;99.90;;;;;;5037429;28;19951;-77
2023/12/31 12:12:24;;;;;;;;;;;5.50;99.90;;;;;;5054600;28;19908;-77
2023/12/31 12:14:50;;;;;;;;;;;5.60;99.90;;;;;;5036718;28;20003;-77
2023/12/31 12:17:15;;;;;;;;;;;5.70;99.90;;;;;;5037709;28;19997;-78
2023/12/31 12:19:41;;;;;;;;;;;5.50;99.90;;;;;;5037318;28;20519;-77
2023/12/31 12:22:07;;;;;;;;;;;5.60;99.90;;;;;;5055527;28;19982;-77
2023/12/31 12:24:32;;;;;;;;;;;5.60;99.90;;;;;;5054342;28;19905;-77
2023/12/31 12:26:58;;;;;;;;;;;5.80;99.90;;;;;;5036914;28;20008;-77
2023/12/31 12:29:25;;;;;;;;;;;5.70;99.90;;;;;;5037138;28;19929;-78
2023/12/31 12:31:50;;;;;;;;;;;5.70;99.90;;;;;;5036918;28;19911;-78
2023/12/31 12:34:16;;;;;;;;;;;5.60;99.90;;;;;;5054925;28;19921;-78
2023/12/31 12:36:42;;;;;;;;;;;5.90;99.90;;;;;;5037374;28;19904;-77
2023/12/31 12:39:18;;;;;;;;;;;5.60;99.90;;;;;;5037263;28;19920;-78
2023/12/31 12:41:45;;;;;;;;;;;5.70;99.90;;;;;;5055128;28;19945;-77
2023/12/31 12:44:11;;;;;;;;;;;5.80;99.90;;;;;;5037609;28;20437;-77
2023/12/31 12:46:39;;;;;;;;;;;6.00;99.90;;;;;;5037248;28;20011;-78
2023/12/31 12:49:05;;;;;;;;;;;6.10;99.90;;;;;;5037436;28;19915;-77
2023/12/31 12:51:30;;;;;;;;;;;6.00;99.90;;;;;;5038188;28;19987;-78
2023/12/31 12:53:56;;;;;;;;;;;6.10;99.90;;;;;;5039343;28;20205;-77
2023/12/31 12:56:24;;;;;;;;;;;6.10;99.90;;;;;;5036732;28;20372;-77
2023/12/31 12:58:50;;;;;;;;;;;6.20;99.90;;;;;;5053088;28;19916;-78
2023/12/31 13:01:16;;;;;;;;;;;6.10;99.90;;;;;;5034762;28;19959;-78
2023/12/31 13:03:41;;;;;;;;;;;6.00;99.90;;;;;;5053206;28;19904;-78
2023/12/31 13:06:07;;;;;;;;;;;6.20;99.90;;;;;;5034613;28;20457;-78
2023/12/31 13:08:32;;;;;;;;;;;6.20;99.90;;;;;;5035458;28;19966;-77
2023/12/31 13:10:58;;;;;;;;;;;6.00;99.90;;;;;;5034829;28;19964;-77
2023/12/31 13:13:24;;;;;;;;;;;6.10;99.90;;;;;;5052909;28;20007;-77
2023/12/31 13:15:49;;;;;;;;;;;6.20;99.90;;;;;;5052722;28;20332;-78
2023/12/31 13:18:15;;;;;;;;;;;6.20;99.90;;;;;;5034924;28;19904;-78
2023/12/31 13:20:42;;;;;;;;;;;6.20;99.90;;;;;;5053183;28;19905;-77
2023/12/31 13:23:07;;;;;;;;;;;6.20;99.90;;;;;;5053373;28;20304;-77
2023/12/31 13:25:33;;;;;;;;;;;6.20;99.90;;;;;;5052485;28;19912;-77
2023/12/31 13:27:58;;;;;;;;;;;6.10;99.90;;;;;;5052729;28;19948;-78
2023/12/31 13:30:26;;;;;;;;;;;6.10;99.90;;;;;;5052583;28;20069;-77
2023/12/31 13:32:51;;;;;;;;;;;6.00;99.90;;;;;;5036662;28;19928;-77
2023/12/31 13:35:17;;;;;;;;;;;5.90;99.90;;;;;;5038462;28;20301;-78
2023/12/31 13:37:42;;;;;;;;;;;5.80;99.90;;;;;;5056439;28;19944;-77
2023/12/31 13:40:08;;;;;;;;;;;5.90;99.90;;;;;;5055637;28;19916;-75
2023/12/31 13:42:34;;;;;;;;;;;5.70;99.90;;;;;;5037609;28;19959;-75
2023/12/31 13:45:00;;;;;;;;;;;5.90;99.90;;;;;;5055360;28;19909;-77
2023/12/31 13:47:26;;;;;;;;;;;5.70;99.90;;;;;;5038153;28;20365;-78
2023/12/31 13:49:51;;;;;;;;;;;5.70;99.90;;;;;;5038697;28;19955;-77
2023/12/31 13:52:17;;;;;;;;;;;5.70;99.90;;;;;;5056938;28;20344;-77
2023/12/31 13:54:42;;;;;;;;;;;5.90;99.90;;;;;;5038608;28;19905;-78
2023/12/31 13:57:08;;;;;;;;;;;5.90;99.90;;;;;;5038841;28;19956;-77
2023/12/31 13:59:33;;;;;;;;;;;6.00;99.90;;;;;;5056025;28;19964;-77
2023/12/31 14:01:59;;;;;;;;;;;5.80;99.90;;;;;;5038123;28;19950;-78
2023/12/31 14:04:24;;;;;;;;;;;5.90;99.90;;;;;;5037967;28;20361;-77
2023/12/31 14:06:50;;;;;;;;;;;5.90;99.90;;;;;;5039112;28;19905;-78
2023/12/31 14:09:17;;;;;;;;;;;5.60;99.90;;;;;;5057764;28;20402;-78
2023/12/31 14:11:42;;;;;;;;;;;5.70;99.90;;;;;;5038613;28;19958;-77
2023/12/31 14:14:08;;;;;;;;;;;5.90;99.90;;;;;;5055958;28;19999;-77
2023/12/31 14:16:34;;;;;;;;;;;5.90;99.90;;;;;;5038385;28;20361;-78
2023/12/31 14:19:00;;;;;;;;;;;5.90;99.90;;;;;;5055943;28;19913;-78
2023/12/31 14:21:26;;;;;;;;;;;5.60;99.90;;;;;;5056430;28;20392;-77
2023/12/31 14:23:51;;;;;;;;;;;5.70;99.90;;;;;;5037972;28;19995;-78